Time;durP1;ratioP1;P1;durP2;ratioP2;P2;SDS_P1;SDS_P2;PMS_P1;PMS_P2;Temp;Humidity;BMP_temperature;BMP_pressure;BME280_temperature;BME280_humidity;BME280_pressure;Samples;Min_cycle;Max_cycle;Signal;HPM_P1;HPM_P2
2021/05/30 00:00:39;;;;;;;4.75;3.50;;;;;;;;;;5070823;28;20042;-76
2021/05/30 00:03:24;;;;;;;4.10;3.53;;;;;;;;;;5056646;28;20570;-78
2021/05/30 00:06:08;;;;;;;4.13;3.13;;;;;;;;;;5056419;28;20495;-75
2021/05/30 00:08:55;;;;;;;5.32;3.97;;;;;;;;;;5070579;28;20384;-78
2021/05/30 00:11:40;;;;;;;9.05;6.20;;;;;;;;;;5056729;28;20093;-76
2021/05/30 00:14:25;;;;;;;9.70;5.32;;;;;;;;;;5057163;28;20046;-75
2021/05/30 00:17:09;;;;;;;7.05;5.18;;;;;;;;;;5070561;28;20047;-75
2021/05/30 00:19:54;;;;;;;8.43;5.20;;;;;;;;;;5070494;28;20093;-75
2021/05/30 00:22:39;;;;;;;7.32;4.55;;;;;;;;;;5070038;28;20039;-75
2021/05/30 00:25:23;;;;;;;6.35;4.70;;;;;;;;;;5070301;28;20412;-75
2021/05/30 00:28:08;;;;;;;8.02;5.43;;;;;;;;;;5070559;28;20086;-76
2021/05/30 00:30:54;;;;;;;7.55;5.32;;;;;;;;;;5070432;28;20097;-75
2021/05/30 00:33:40;;;;;;;10.75;5.85;;;;;;;;;;5056398;28;20047;-75
2021/05/30 00:36:25;;;;;;;9.07;5.78;;;;;;;;;;5085538;28;20471;-76
2021/05/30 00:39:09;;;;;;;8.52;5.88;;;;;;;;;;5056343;28;20102;-75
2021/05/30 00:41:54;;;;;;;7.15;5.15;;;;;;;;;;5056298;28;20043;-75
2021/05/30 00:44:38;;;;;;;8.55;5.95;;;;;;;;;;5056169;28;20120;-76
2021/05/30 00:47:23;;;;;;;7.68;5.55;;;;;;;;;;5085691;28;20480;-75
2021/05/30 00:50:08;;;;;;;7.25;5.07;;;;;;;;;;5070108;28;20063;-77
2021/05/30 00:52:53;;;;;;;6.10;4.65;;;;;;;;;;5085609;28;20411;-75
2021/05/30 00:55:37;;;;;;;6.53;4.50;;;;;;;;;;5055972;28;20567;-78
2021/05/30 00:58:22;;;;;;;7.60;4.80;;;;;;;;;;5056029;28;20120;-76
2021/05/30 01:01:07;;;;;;;6.75;4.47;;;;;;;;;;5085347;28;20051;-75
2021/05/30 01:03:52;;;;;;;9.77;4.93;;;;;;;;;;5070081;28;20050;-76
2021/05/30 01:06:38;;;;;;;5.05;4.07;;;;;;;;;;5070199;28;20109;-75
2021/05/30 01:09:27;;;;;;;6.68;4.60;;;;;;;;;;5056034;28;20058;-76
2021/05/30 01:12:11;;;;;;;5.55;4.32;;;;;;;;;;5070315;28;20136;-75
2021/05/30 01:14:56;;;;;;;6.63;4.25;;;;;;;;;;5069787;28;20400;-75
2021/05/30 01:17:41;;;;;;;6.85;4.00;;;;;;;;;;5055691;28;20093;-75
2021/05/30 01:20:26;;;;;;;5.65;4.22;;;;;;;;;;5070071;28;20043;-75
2021/05/30 01:23:14;;;;;;;5.38;3.90;;;;;;;;;;5056125;28;20648;-75
2021/05/30 01:25:59;;;;;;;5.07;3.55;;;;;;;;;;5055873;28;20415;-75
2021/05/30 01:28:44;;;;;;;5.90;3.92;;;;;;;;;;5069813;28;20085;-75
2021/05/30 01:31:29;;;;;;;5.88;3.95;;;;;;;;;;5048864;28;20044;-76
2021/05/30 01:34:13;;;;;;;5.10;3.88;;;;;;;;;;5051123;28;20074;-76
2021/05/30 01:36:58;;;;;;;5.82;3.92;;;;;;;;;;5053250;28;20055;-75
2021/05/30 01:39:42;;;;;;;5.97;3.78;;;;;;;;;;5053277;28;20154;-75
2021/05/30 01:42:27;;;;;;;5.18;4.03;;;;;;;;;;5067619;28;20105;-76
2021/05/30 01:45:12;;;;;;;6.47;4.03;;;;;;;;;;5053445;28;20052;-74
2021/05/30 01:47:57;;;;;;;6.20;3.47;;;;;;;;;;5053426;28;20043;-75
2021/05/30 01:50:47;;;;;;;6.65;3.92;;;;;;;;;;5072531;28;20062;-75
2021/05/30 01:53:37;;;;;;;5.25;3.65;;;;;;;;;;5073743;28;20074;-75
2021/05/30 01:59:25;;;;;;;4.65;3.58;;;;;;;;;;5075959;28;20043;-76
2021/05/30 02:02:10;;;;;;;5.50;4.10;;;;;;;;;;5072979;28;20419;-76
2021/05/30 02:04:55;;;;;;;6.20;3.70;;;;;;;;;;5073179;28;20416;-75
2021/05/30 02:07:40;;;;;;;4.93;3.50;;;;;;;;;;5058771;28;20042;-75
2021/05/30 02:10:25;;;;;;;4.43;3.38;;;;;;;;;;5072920;28;20042;-75
2021/05/30 02:13:09;;;;;;;6.05;4.10;;;;;;;;;;5089002;28;20082;-75
2021/05/30 02:15:54;;;;;;;4.90;3.50;;;;;;;;;;5091242;28;20574;-75
2021/05/30 02:18:38;;;;;;;4.45;3.67;;;;;;;;;;5075140;28;20417;-75
2021/05/30 02:21:23;;;;;;;4.93;3.60;;;;;;;;;;5061094;28;20051;-75
2021/05/30 02:24:07;;;;;;;4.95;3.83;;;;;;;;;;5090327;28;20578;-75
2021/05/30 02:26:52;;;;;;;5.38;3.70;;;;;;;;;;5075103;28;20039;-75
2021/05/30 02:29:37;;;;;;;4.15;3.30;;;;;;;;;;5060854;28;20920;-75
2021/05/30 02:32:22;;;;;;;4.13;3.50;;;;;;;;;;5090356;28;20081;-75
2021/05/30 02:35:07;;;;;;;4.07;3.50;;;;;;;;;;5089925;28;20073;-75
2021/05/30 02:37:52;;;;;;;4.80;3.58;;;;;;;;;;5075084;28;20074;-75
2021/05/30 02:40:36;;;;;;;4.10;3.53;;;;;;;;;;5090288;28;20066;-75
2021/05/30 02:43:22;;;;;;;6.13;3.97;;;;;;;;;;5090104;28;20054;-75
2021/05/30 02:46:07;;;;;;;5.20;3.50;;;;;;;;;;5089629;28;20043;-75
2021/05/30 02:48:51;;;;;;;4.53;3.25;;;;;;;;;;5089990;28;20053;-75
2021/05/30 02:51:36;;;;;;;3.83;3.08;;;;;;;;;;5074569;28;20071;-75
2021/05/30 02:54:21;;;;;;;5.35;3.50;;;;;;;;;;5090009;28;20089;-75
2021/05/30 02:57:06;;;;;;;5.30;3.38;;;;;;;;;;5089941;28;20450;-75
2021/05/30 02:59:50;;;;;;;6.05;3.50;;;;;;;;;;5089558;28;20088;-75
2021/05/30 03:02:35;;;;;;;5.00;3.38;;;;;;;;;;5074468;28;20123;-75
2021/05/30 03:05:19;;;;;;;4.00;3.33;;;;;;;;;;5089946;28;20097;-75
2021/05/30 03:08:04;;;;;;;4.07;3.10;;;;;;;;;;5089582;28;20043;-75
2021/05/30 03:10:49;;;;;;;5.25;3.45;;;;;;;;;;5089588;28;20046;-75
2021/05/30 03:13:34;;;;;;;4.85;3.80;;;;;;;;;;5074387;28;20109;-75
2021/05/30 03:16:19;;;;;;;6.43;3.53;;;;;;;;;;5090113;28;20097;-75
2021/05/30 03:19:03;;;;;;;5.00;3.33;;;;;;;;;;5089256;28;20043;-75
2021/05/30 03:21:48;;;;;;;4.45;3.35;;;;;;;;;;5089454;28;20047;-75
2021/05/30 03:24:33;;;;;;;4.90;3.10;;;;;;;;;;5089178;28;20054;-75
2021/05/30 03:27:17;;;;;;;3.90;3.15;;;;;;;;;;5073923;28;20106;-75
2021/05/30 03:30:02;;;;;;;4.10;3.22;;;;;;;;;;5089188;28;20496;-75
2021/05/30 03:32:46;;;;;;;4.57;3.40;;;;;;;;;;5088948;28;20042;-75
2021/05/30 03:35:31;;;;;;;5.60;3.22;;;;;;;;;;5089044;28;20058;-75
2021/05/30 03:38:17;;;;;;;5.50;3.70;;;;;;;;;;5073427;28;20443;-75
2021/05/30 03:41:05;;;;;;;4.53;3.17;;;;;;;;;;5089087;28;20039;-75
2021/05/30 03:43:49;;;;;;;4.50;3.53;;;;;;;;;;5088732;28;20047;-75
2021/05/30 03:46:34;;;;;;;4.70;3.67;;;;;;;;;;5073414;28;20443;-75
2021/05/30 03:49:19;;;;;;;4.85;3.40;;;;;;;;;;5073388;28;20119;-75
2021/05/30 03:52:04;;;;;;;4.05;3.30;;;;;;;;;;5088912;28;20224;-75
2021/05/30 03:54:49;;;;;;;6.20;3.45;;;;;;;;;;5073317;28;20682;-75
2021/05/30 03:57:34;;;;;;;4.53;3.55;;;;;;;;;;5088131;28;20500;-75
2021/05/30 04:00:20;;;;;;;5.43;3.63;;;;;;;;;;5088629;28;20069;-75
2021/05/30 04:03:05;;;;;;;4.57;3.30;;;;;;;;;;5088857;28;20038;-75
2021/05/30 04:05:49;;;;;;;5.30;3.30;;;;;;;;;;5088536;28;20710;-75
2021/05/30 04:08:34;;;;;;;4.75;3.33;;;;;;;;;;5088628;28;20109;-75
2021/05/30 04:11:19;;;;;;;4.80;3.83;;;;;;;;;;5088706;28;20136;-75
2021/05/30 04:14:03;;;;;;;5.05;3.75;;;;;;;;;;5088447;28;20035;-75
2021/05/30 04:16:48;;;;;;;4.90;3.40;;;;;;;;;;5073890;28;20140;-75
2021/05/30 04:19:32;;;;;;;4.80;3.47;;;;;;;;;;5088556;28;20085;-75
2021/05/30 04:22:17;;;;;;;5.88;3.72;;;;;;;;;;5088440;28;20051;-75
2021/05/30 04:25:01;;;;;;;4.90;3.35;;;;;;;;;;5088453;28;20101;-75
2021/05/30 04:27:47;;;;;;;5.97;3.35;;;;;;;;;;5088602;28;20056;-75
2021/05/30 04:30:32;;;;;;;5.07;3.50;;;;;;;;;;5088296;28;20047;-75
2021/05/30 04:33:16;;;;;;;5.80;3.67;;;;;;;;;;5072970;28;20058;-75
2021/05/30 04:36:01;;;;;;;6.03;4.05;;;;;;;;;;5088295;28;20062;-74
2021/05/30 04:38:46;;;;;;;4.63;3.60;;;;;;;;;;5088424;28;20611;-75
2021/05/30 04:41:30;;;;;;;4.68;3.30;;;;;;;;;;5088301;28;20520;-75
2021/05/30 04:44:15;;;;;;;5.70;3.47;;;;;;;;;;5088180;28;20039;-75
2021/05/30 04:46:59;;;;;;;5.70;3.63;;;;;;;;;;5088124;28;20525;-75
2021/05/30 04:49:44;;;;;;;4.18;3.25;;;;;;;;;;5085561;28;20578;-79
2021/05/30 04:52:28;;;;;;;5.25;3.47;;;;;;;;;;5070527;28;20047;-75
2021/05/30 04:55:13;;;;;;;5.50;4.22;;;;;;;;;;5085662;28;20051;-75
2021/05/30 04:57:58;;;;;;;5.63;3.88;;;;;;;;;;5070637;28;20526;-75
2021/05/30 05:00:42;;;;;;;5.70;3.88;;;;;;;;;;5085818;28;20141;-76
2021/05/30 05:03:27;;;;;;;5.13;3.80;;;;;;;;;;5070294;28;20097;-75
2021/05/30 05:06:12;;;;;;;5.30;3.75;;;;;;;;;;5070641;28;20108;-75
2021/05/30 05:08:56;;;;;;;5.10;3.67;;;;;;;;;;5073055;28;20396;-75
2021/05/30 05:11:41;;;;;;;5.43;4.05;;;;;;;;;;5074277;28;20047;-75
2021/05/30 05:14:26;;;;;;;5.80;3.83;;;;;;;;;;5074129;28;20047;-76
2021/05/30 05:17:11;;;;;;;5.07;3.88;;;;;;;;;;5060343;28;20117;-75
2021/05/30 05:19:55;;;;;;;5.97;3.95;;;;;;;;;;5059849;28;20085;-75
2021/05/30 05:22:39;;;;;;;5.68;3.95;;;;;;;;;;5074239;28;20043;-75
2021/05/30 05:25:24;;;;;;;6.07;4.18;;;;;;;;;;5088939;28;20109;-75
2021/05/30 05:28:08;;;;;;;5.25;4.03;;;;;;;;;;5059730;28;20244;-76
2021/05/30 05:30:53;;;;;;;6.47;4.40;;;;;;;;;;5073772;28;20113;-75
2021/05/30 05:33:38;;;;;;;6.85;3.78;;;;;;;;;;5059806;28;20465;-75
2021/05/30 05:36:22;;;;;;;5.03;3.95;;;;;;;;;;5073608;28;20051;-75
2021/05/30 05:39:07;;;;;;;5.93;4.00;;;;;;;;;;5059615;28;20047;-76
2021/05/30 05:41:53;;;;;;;6.95;4.35;;;;;;;;;;5059676;28;20047;-75
2021/05/30 05:44:38;;;;;;;6.53;3.90;;;;;;;;;;5073629;28;20043;-75
2021/05/30 05:47:23;;;;;;;5.47;3.95;;;;;;;;;;5067664;28;20746;-75
2021/05/30 05:50:08;;;;;;;6.65;4.40;;;;;;;;;;5053391;28;20460;-75
2021/05/30 05:52:52;;;;;;;5.53;3.95;;;;;;;;;;5068741;28;20116;-75
2021/05/30 05:55:37;;;;;;;5.85;4.03;;;;;;;;;;5053264;28;20206;-74
2021/05/30 05:58:22;;;;;;;6.18;3.92;;;;;;;;;;5053639;28;20044;-75
2021/05/30 06:01:09;;;;;;;4.78;3.70;;;;;;;;;;5067349;28;20063;-75
2021/05/30 06:03:53;;;;;;;5.78;4.25;;;;;;;;;;5067185;28;20488;-75
2021/05/30 06:06:38;;;;;;;5.72;4.10;;;;;;;;;;5067330;28;20461;-75
2021/05/30 06:09:22;;;;;;;6.18;4.00;;;;;;;;;;5067309;28;20082;-75
2021/05/30 06:12:07;;;;;;;5.30;3.80;;;;;;;;;;5067245;28;20047;-76
2021/05/30 06:14:52;;;;;;;5.53;4.20;;;;;;;;;;5067246;28;20105;-76
2021/05/30 06:17:36;;;;;;;5.25;3.80;;;;;;;;;;5067097;28;20104;-75
2021/05/30 06:20:21;;;;;;;6.20;4.03;;;;;;;;;;5052230;28;20039;-77
2021/05/30 06:23:06;;;;;;;5.20;4.18;;;;;;;;;;5067148;28;20106;-76
2021/05/30 06:25:51;;;;;;;6.65;3.90;;;;;;;;;;5067093;28;20055;-75
2021/05/30 06:28:35;;;;;;;6.18;4.20;;;;;;;;;;5052831;28;20036;-75
2021/05/30 06:31:19;;;;;;;5.15;3.83;;;;;;;;;;5067061;28;20538;-75
2021/05/30 06:34:04;;;;;;;5.25;3.72;;;;;;;;;;5066768;28;20047;-75
2021/05/30 06:36:50;;;;;;;4.88;3.65;;;;;;;;;;5066741;28;20711;-76
2021/05/30 06:39:34;;;;;;;5.63;3.97;;;;;;;;;;5066814;28;20500;-75
2021/05/30 06:42:19;;;;;;;6.18;3.70;;;;;;;;;;5066617;28;20048;-75
2021/05/30 06:45:04;;;;;;;5.70;4.22;;;;;;;;;;5068402;28;20093;-75
2021/05/30 06:47:48;;;;;;;5.47;4.25;;;;;;;;;;5072429;28;20428;-75
2021/05/30 06:50:33;;;;;;;5.20;3.65;;;;;;;;;;5072289;28;20051;-76
2021/05/30 06:53:18;;;;;;;5.43;3.80;;;;;;;;;;5058568;28;20043;-75
2021/05/30 06:56:03;;;;;;;5.10;3.60;;;;;;;;;;5072166;28;20051;-76
2021/05/30 06:58:47;;;;;;;6.53;3.65;;;;;;;;;;5072324;28;20043;-75
2021/05/30 07:01:32;;;;;;;4.47;3.70;;;;;;;;;;5057994;28;20043;-76
2021/05/30 07:04:16;;;;;;;5.03;3.72;;;;;;;;;;5058258;28;20039;-75
2021/05/30 07:07:00;;;;;;;5.65;3.40;;;;;;;;;;5057876;28;20046;-75
2021/05/30 07:09:45;;;;;;;4.90;3.70;;;;;;;;;;5058230;28;20047;-75
2021/05/30 07:12:30;;;;;;;4.45;3.40;;;;;;;;;;5058076;28;20078;-76
2021/05/30 07:15:14;;;;;;;4.03;3.15;;;;;;;;;;5058302;28;20438;-75
2021/05/30 07:17:59;;;;;;;4.13;3.45;;;;;;;;;;5072049;28;20093;-75
2021/05/30 07:20:45;;;;;;;4.40;3.33;;;;;;;;;;5087438;28;20439;-76
2021/05/30 07:23:29;;;;;;;4.78;3.75;;;;;;;;;;5071587;28;20047;-75
2021/05/30 07:26:14;;;;;;;5.22;3.30;;;;;;;;;;5071782;28;20086;-79
2021/05/30 07:28:59;;;;;;;4.07;3.20;;;;;;;;;;5071852;28;20101;-76
2021/05/30 07:31:44;;;;;;;4.28;3.25;;;;;;;;;;5070463;28;20050;-76
2021/05/30 07:34:29;;;;;;;3.75;2.78;;;;;;;;;;5051524;28;20079;-76
2021/05/30 07:37:13;;;;;;;3.53;2.88;;;;;;;;;;5079913;28;20055;-75
2021/05/30 07:39:58;;;;;;;4.20;3.10;;;;;;;;;;5079479;28;20058;-76
2021/05/30 07:42:42;;;;;;;4.03;3.30;;;;;;;;;;5079678;28;20068;-74
2021/05/30 07:45:28;;;;;;;4.13;3.00;;;;;;;;;;5084729;28;20046;-75
2021/05/30 07:48:13;;;;;;;4.50;2.50;;;;;;;;;;5086569;28;20035;-76
2021/05/30 07:50:58;;;;;;;3.83;2.90;;;;;;;;;;5086596;28;20538;-76
2021/05/30 07:53:42;;;;;;;3.47;2.78;;;;;;;;;;5086651;28;20039;-75
2021/05/30 07:56:27;;;;;;;3.10;2.50;;;;;;;;;;5057033;28;20121;-76
2021/05/30 07:59:11;;;;;;;3.47;2.80;;;;;;;;;;5057163;28;20517;-76
2021/05/30 08:01:58;;;;;;;3.75;2.85;;;;;;;;;;5071116;28;20086;-76
2021/05/30 08:04:42;;;;;;;3.72;2.70;;;;;;;;;;5071427;28;20043;-76
2021/05/30 08:07:27;;;;;;;4.10;2.92;;;;;;;;;;5057072;28;20042;-76
2021/05/30 08:10:11;;;;;;;2.78;2.47;;;;;;;;;;5056953;28;20042;-75
2021/05/30 08:12:56;;;;;;;3.58;2.40;;;;;;;;;;5071026;28;20097;-76
2021/05/30 08:15:41;;;;;;;2.65;2.33;;;;;;;;;;5071044;28;20142;-75
2021/05/30 08:18:26;;;;;;;2.92;2.63;;;;;;;;;;5056847;28;20415;-75
2021/05/30 08:21:10;;;;;;;3.00;2.70;;;;;;;;;;5056892;28;20093;-76
2021/05/30 08:23:55;;;;;;;3.03;2.45;;;;;;;;;;5070758;28;20054;-75
2021/05/30 08:26:40;;;;;;;3.08;2.65;;;;;;;;;;5086120;28;20160;-76
2021/05/30 08:29:25;;;;;;;4.50;2.60;;;;;;;;;;5086147;28;20047;-76
2021/05/30 08:32:09;;;;;;;3.45;2.40;;;;;;;;;;5070803;28;20043;-76
2021/05/30 08:34:55;;;;;;;3.92;2.50;;;;;;;;;;5056491;28;20069;-76
2021/05/30 08:37:43;;;;;;;3.65;2.60;;;;;;;;;;5070822;28;20424;-76
2021/05/30 08:40:28;;;;;;;2.92;2.60;;;;;;;;;;5071201;28;20140;-75
2021/05/30 08:43:12;;;;;;;3.60;2.72;;;;;;;;;;5058045;28;20072;-75
2021/05/30 08:45:57;;;;;;;3.25;2.40;;;;;;;;;;5074696;28;20096;-76
2021/05/30 08:48:42;;;;;;;2.58;2.10;;;;;;;;;;5074758;28;20051;-76
2021/05/30 08:51:27;;;;;;;3.13;2.53;;;;;;;;;;5074787;28;20754;-76
2021/05/30 08:54:12;;;;;;;4.43;2.50;;;;;;;;;;5060358;28;20058;-76
2021/05/30 08:56:57;;;;;;;3.08;2.60;;;;;;;;;;5074691;28;20055;-76
2021/05/30 08:59:51;;;;;;;3.35;2.42;;;;;;;;;;5074453;28;20613;-76
2021/05/30 09:02:36;;;;;;;3.88;2.60;;;;;;;;;;5074517;28;20416;-75
2021/05/30 09:05:20;;;;;;;2.90;2.50;;;;;;;;;;5089812;28;20043;-76
2021/05/30 09:08:05;;;;;;;3.10;2.25;;;;;;;;;;5074754;28;21144;-77
2021/05/30 09:10:53;;;;;;;3.20;2.33;;;;;;;;;;5074334;28;20515;-76
2021/05/30 09:13:54;;;;;;;2.75;2.40;;;;;;;;;;5060151;28;20047;-76
2021/05/30 09:16:47;;;;;;;4.65;2.40;;;;;;;;;;5074175;28;20428;-76
2021/05/30 09:19:33;;;;;;;2.83;2.50;;;;;;;;;;5074110;28;20063;-76
2021/05/30 09:22:17;;;;;;;2.40;2.10;;;;;;;;;;5060216;28;20168;-76
2021/05/30 09:25:11;;;;;;;3.75;2.53;;;;;;;;;;5088687;28;20460;-76
2021/05/30 09:28:01;;;;;;;2.72;2.30;;;;;;;;;;5089583;28;20050;-76
2021/05/30 09:30:46;;;;;;;3.03;2.30;;;;;;;;;;5074570;28;20042;-77
2021/05/30 09:33:30;;;;;;;3.13;2.60;;;;;;;;;;5059955;28;20071;-76
2021/05/30 09:36:15;;;;;;;2.80;2.47;;;;;;;;;;5073932;28;20059;-75
2021/05/30 09:39:04;;;;;;;3.10;2.30;;;;;;;;;;5059542;28;20120;-78
2021/05/30 09:41:49;;;;;;;2.42;2.22;;;;;;;;;;5059814;28;20416;-76
2021/05/30 09:44:33;;;;;;;2.95;2.25;;;;;;;;;;5089189;28;20613;-76
2021/05/30 09:47:36;;;;;;;2.70;2.28;;;;;;;;;;5053508;28;20146;-76
2021/05/30 09:50:20;;;;;;;2.50;2.20;;;;;;;;;;5067510;28;20036;-75
2021/05/30 09:53:05;;;;;;;3.30;2.50;;;;;;;;;;5053557;28;20443;-77
2021/05/30 09:55:50;;;;;;;2.92;2.30;;;;;;;;;;5052291;28;20428;-76
2021/05/30 09:58:34;;;;;;;2.47;2.25;;;;;;;;;;5053583;28;20146;-76
2021/05/30 10:01:19;;;;;;;2.60;2.25;;;;;;;;;;5053352;28;20093;-76
2021/05/30 10:04:03;;;;;;;2.88;2.33;;;;;;;;;;5067519;28;20439;-79
2021/05/30 10:06:48;;;;;;;2.80;2.45;;;;;;;;;;5067220;28;20369;-77
2021/05/30 10:09:34;;;;;;;2.92;2.50;;;;;;;;;;5053290;28;20047;-76
2021/05/30 10:12:19;;;;;;;2.78;2.17;;;;;;;;;;5053339;28;20046;-76
2021/05/30 10:15:05;;;;;;;4.05;2.30;;;;;;;;;;5053997;28;20035;-76
2021/05/30 10:17:51;;;;;;;2.83;2.38;;;;;;;;;;5075188;28;20126;-76
2021/05/30 10:20:37;;;;;;;2.60;2.40;;;;;;;;;;5088217;28;20039;-76
2021/05/30 10:23:22;;;;;;;2.60;2.10;;;;;;;;;;5058707;28;20042;-76
2021/05/30 10:26:20;;;;;;;3.60;2.70;;;;;;;;;;5058909;28;20047;-77
2021/05/30 10:29:12;;;;;;;3.78;2.60;;;;;;;;;;5058692;28;20062;-76
2021/05/30 10:31:56;;;;;;;2.47;2.28;;;;;;;;;;5072701;28;20089;-76
2021/05/30 10:34:48;;;;;;;2.63;2.42;;;;;;;;;;5058720;28;20043;-76
2021/05/30 10:37:36;;;;;;;2.92;2.30;;;;;;;;;;5058592;28;20066;-77
2021/05/30 10:40:21;;;;;;;2.80;2.35;;;;;;;;;;5058292;28;20119;-77
2021/05/30 10:43:09;;;;;;;3.75;2.45;;;;;;;;;;5088088;28;20039;-76
2021/05/30 10:46:01;;;;;;;2.72;2.38;;;;;;;;;;5088004;28;20113;-76
2021/05/30 10:49:05;;;;;;;3.55;2.30;;;;;;;;;;5072596;28;20046;-76
2021/05/30 10:51:50;;;;;;;3.05;2.58;;;;;;;;;;5087856;28;20046;-76
2021/05/30 10:54:34;;;;;;;3.13;2.20;;;;;;;;;;5087945;28;20161;-76
2021/05/30 10:57:24;;;;;;;2.65;2.45;;;;;;;;;;5072430;28;20055;-77
2021/05/30 11:00:36;;;;;;;2.88;2.40;;;;;;;;;;5072227;28;20546;-76
2021/05/30 11:03:21;;;;;;;2.80;2.50;;;;;;;;;;5087494;28;20678;-76
2021/05/30 11:06:05;;;;;;;2.42;2.22;;;;;;;;;;5057958;28;20039;-76
2021/05/30 11:08:52;;;;;;;2.95;2.50;;;;;;;;;;5057951;28;20561;-76
2021/05/30 11:11:37;;;;;;;3.40;2.42;;;;;;;;;;5087250;28;20074;-77
2021/05/30 11:14:21;;;;;;;3.05;2.45;;;;;;;;;;5072617;28;20051;-76
2021/05/30 11:17:06;;;;;;;2.72;2.42;;;;;;;;;;5057667;28;20436;-76
2021/05/30 11:19:56;;;;;;;2.97;2.53;;;;;;;;;;5071792;28;20039;-76
2021/05/30 11:22:42;;;;;;;3.63;2.57;;;;;;;;;;5087232;28;20553;-77
2021/05/30 11:25:46;;;;;;;3.47;2.50;;;;;;;;;;5071377;28;20283;-77
2021/05/30 11:28:31;;;;;;;2.60;2.25;;;;;;;;;;5051437;28;20044;-76
2021/05/30 11:31:15;;;;;;;3.10;2.60;;;;;;;;;;5080054;28;20177;-79
2021/05/30 11:34:06;;;;;;;3.00;2.53;;;;;;;;;;5051874;28;20558;-76
2021/05/30 11:36:51;;;;;;;2.60;2.40;;;;;;;;;;5066607;28;20574;-76
2021/05/30 11:39:39;;;;;;;2.67;2.47;;;;;;;;;;5065261;28;20698;-76
2021/05/30 11:42:26;;;;;;;3.00;2.53;;;;;;;;;;5079770;28;20166;-77
2021/05/30 11:45:28;;;;;;;2.88;2.58;;;;;;;;;;5079851;28;20097;-76
2021/05/30 11:48:17;;;;;;;3.10;2.80;;;;;;;;;;5079572;28;20078;-77
2021/05/30 11:51:02;;;;;;;2.92;2.40;;;;;;;;;;5079583;28;20494;-78
2021/05/30 11:53:46;;;;;;;3.20;2.90;;;;;;;;;;5079842;28;20094;-76
2021/05/30 11:56:36;;;;;;;2.70;2.40;;;;;;;;;;5051150;28;20545;-76
2021/05/30 11:59:28;;;;;;;3.22;2.70;;;;;;;;;;5079238;28;20097;-76
2021/05/30 12:02:25;;;;;;;3.08;2.80;;;;;;;;;;5051027;28;20132;-77
2021/05/30 12:05:11;;;;;;;4.03;2.92;;;;;;;;;;5079491;28;20051;-76
2021/05/30 12:07:56;;;;;;;3.13;2.72;;;;;;;;;;5079161;28;20622;-76
2021/05/30 12:10:55;;;;;;;3.13;2.83;;;;;;;;;;5072610;28;20121;-77
2021/05/30 12:13:40;;;;;;;3.20;2.90;;;;;;;;;;5086340;28;20081;-78
2021/05/30 12:16:24;;;;;;;3.20;2.90;;;;;;;;;;5070840;28;20150;-77
2021/05/30 12:19:09;;;;;;;3.20;2.90;;;;;;;;;;5070334;28;20050;-76
2021/05/30 12:21:53;;;;;;;3.92;3.08;;;;;;;;;;5056646;28;20483;-77
2021/05/30 12:24:38;;;;;;;3.38;2.88;;;;;;;;;;5086060;28;20059;-77
2021/05/30 12:27:22;;;;;;;3.83;2.90;;;;;;;;;;5056565;28;20085;-77
2021/05/30 12:30:08;;;;;;;3.20;2.90;;;;;;;;;;5070878;28;20051;-78
2021/05/30 12:32:52;;;;;;;3.38;3.00;;;;;;;;;;5070741;28;20665;-76
2021/05/30 12:35:53;;;;;;;3.45;2.83;;;;;;;;;;5085960;28;20082;-77
2021/05/30 12:38:37;;;;;;;3.60;2.85;;;;;;;;;;5056609;28;20087;-76
2021/05/30 12:41:22;;;;;;;3.38;3.08;;;;;;;;;;5086113;28;20113;-76
2021/05/30 12:44:08;;;;;;;3.70;3.20;;;;;;;;;;5070717;28;20038;-76
2021/05/30 12:46:56;;;;;;;3.22;2.88;;;;;;;;;;5056563;28;20442;-77
2021/05/30 12:49:41;;;;;;;3.53;3.10;;;;;;;;;;5070481;28;20090;-77
2021/05/30 12:52:25;;;;;;;3.38;2.70;;;;;;;;;;5070756;28;20039;-77
2021/05/30 12:55:10;;;;;;;4.32;3.17;;;;;;;;;;5070701;28;20120;-77
2021/05/30 12:57:56;;;;;;;3.50;3.20;;;;;;;;;;5070419;28;20047;-76
2021/05/30 13:00:41;;;;;;;3.20;2.90;;;;;;;;;;5070697;28;20065;-77
2021/05/30 13:03:26;;;;;;;3.45;3.15;;;;;;;;;;5070579;28;20499;-76
2021/05/30 13:06:11;;;;;;;3.63;3.28;;;;;;;;;;5085543;28;20043;-77
2021/05/30 13:08:59;;;;;;;3.40;3.10;;;;;;;;;;5070353;28;20447;-77
2021/05/30 13:11:44;;;;;;;3.58;2.88;;;;;;;;;;5056370;28;20404;-77
2021/05/30 13:14:32;;;;;;;3.72;2.75;;;;;;;;;;5069899;28;20043;-76
2021/05/30 13:17:17;;;;;;;3.67;3.28;;;;;;;;;;5056214;28;20139;-76
2021/05/30 13:20:02;;;;;;;3.40;2.95;;;;;;;;;;5070609;28;20050;-76
2021/05/30 13:22:53;;;;;;;3.58;3.25;;;;;;;;;;5070351;28;20590;-76
2021/05/30 13:25:38;;;;;;;3.60;3.30;;;;;;;;;;5085584;28;20067;-76
2021/05/30 13:28:24;;;;;;;3.58;3.00;;;;;;;;;;5056407;28;20039;-76
2021/05/30 13:31:12;;;;;;;3.83;3.10;;;;;;;;;;5073407;28;20127;-76
2021/05/30 13:33:57;;;;;;;3.45;3.15;;;;;;;;;;5075013;28;20608;-76
2021/05/30 13:36:41;;;;;;;3.40;3.10;;;;;;;;;;5060681;28;20097;-76
2021/05/30 13:39:27;;;;;;;4.03;3.08;;;;;;;;;;5089917;28;20055;-77
2021/05/30 13:42:11;;;;;;;3.65;3.30;;;;;;;;;;5060968;28;20193;-77
2021/05/30 13:44:56;;;;;;;3.20;2.83;;;;;;;;;;5090267;28;20051;-76
2021/05/30 13:47:41;;;;;;;3.55;3.20;;;;;;;;;;5060533;28;20079;-76
2021/05/30 13:50:25;;;;;;;3.50;3.08;;;;;;;;;;5074515;28;20081;-79
2021/05/30 13:53:10;;;;;;;3.47;3.05;;;;;;;;;;5074619;28;20577;-76
2021/05/30 13:55:55;;;;;;;3.30;3.00;;;;;;;;;;5074964;28;20174;-76
2021/05/30 13:58:39;;;;;;;4.07;3.10;;;;;;;;;;5060886;28;20039;-76
2021/05/30 14:01:25;;;;;;;3.28;2.95;;;;;;;;;;5074401;28;20100;-76
2021/05/30 14:04:10;;;;;;;3.50;3.20;;;;;;;;;;5075490;28;20039;-76
2021/05/30 14:06:54;;;;;;;3.55;3.22;;;;;;;;;;5073501;28;20043;-76
2021/05/30 14:09:39;;;;;;;3.85;3.42;;;;;;;;;;5059633;28;20043;-76
2021/05/30 14:12:23;;;;;;;3.30;3.00;;;;;;;;;;5053792;28;20055;-76
2021/05/30 14:15:08;;;;;;;3.58;3.25;;;;;;;;;;5053582;28;20050;-76
2021/05/30 14:17:53;;;;;;;4.22;3.70;;;;;;;;;;5053019;28;20117;-76
2021/05/30 14:20:38;;;;;;;3.35;3.05;;;;;;;;;;5067186;28;20059;-77
2021/05/30 14:23:23;;;;;;;3.28;2.97;;;;;;;;;;5052635;28;20043;-76
2021/05/30 14:26:07;;;;;;;3.35;3.05;;;;;;;;;;5053039;28;20168;-76
2021/05/30 14:28:52;;;;;;;3.20;2.90;;;;;;;;;;5052894;28;20090;-79
2021/05/30 14:31:37;;;;;;;3.92;3.20;;;;;;;;;;5066934;28;20550;-76
2021/05/30 14:34:21;;;;;;;3.95;3.10;;;;;;;;;;5052918;28;20400;-76
2021/05/30 14:37:06;;;;;;;3.65;3.35;;;;;;;;;;5066672;28;20063;-76
2021/05/30 14:39:50;;;;;;;3.78;3.30;;;;;;;;;;5052582;28;20087;-79
2021/05/30 14:42:34;;;;;;;3.53;3.13;;;;;;;;;;5066447;28;20048;-76
2021/05/30 14:45:19;;;;;;;3.92;3.17;;;;;;;;;;5052519;28;20413;-77
2021/05/30 14:48:04;;;;;;;4.22;3.45;;;;;;;;;;5066772;28;20050;-76
2021/05/30 14:50:49;;;;;;;3.58;3.28;;;;;;;;;;5052408;28;20555;-76
2021/05/30 14:53:33;;;;;;;3.63;3.33;;;;;;;;;;5052195;28;20865;-76
2021/05/30 14:56:18;;;;;;;3.50;3.20;;;;;;;;;;5066262;28;20051;-77
2021/05/30 14:59:03;;;;;;;3.70;3.40;;;;;;;;;;5066428;28;20074;-76
2021/05/30 15:01:47;;;;;;;3.72;3.25;;;;;;;;;;5052101;28;20047;-77
2021/05/30 15:04:32;;;;;;;3.40;3.10;;;;;;;;;;5052116;28;20542;-76
2021/05/30 15:07:17;;;;;;;3.63;3.33;;;;;;;;;;5066091;28;20071;-77
2021/05/30 15:10:01;;;;;;;3.58;3.28;;;;;;;;;;5068250;28;20566;-77
2021/05/30 15:12:46;;;;;;;3.90;3.50;;;;;;;;;;5072153;28;20043;-76
2021/05/30 15:15:30;;;;;;;4.38;3.10;;;;;;;;;;5088070;28;20597;-76
2021/05/30 15:18:15;;;;;;;4.38;3.17;;;;;;;;;;5071681;28;20462;-77
2021/05/30 15:21:00;;;;;;;3.65;3.35;;;;;;;;;;5057724;28;20088;-78
2021/05/30 15:23:45;;;;;;;3.90;3.50;;;;;;;;;;5057368;28;20100;-77
2021/05/30 15:26:30;;;;;;;3.92;3.30;;;;;;;;;;5057658;28;20039;-76
2021/05/30 15:29:14;;;;;;;3.70;3.20;;;;;;;;;;5071729;28;20457;-76
2021/05/30 15:31:59;;;;;;;3.90;3.50;;;;;;;;;;5057325;28;20549;-77
2021/05/30 15:34:44;;;;;;;3.70;3.35;;;;;;;;;;5057604;28;20038;-77
2021/05/30 15:37:28;;;;;;;3.83;3.42;;;;;;;;;;5070872;28;20059;-76
2021/05/30 15:40:13;;;;;;;3.47;3.17;;;;;;;;;;5057230;28;20147;-80
2021/05/30 15:42:57;;;;;;;3.50;3.20;;;;;;;;;;5071600;28;20077;-76
2021/05/30 15:45:42;;;;;;;3.90;3.22;;;;;;;;;;5086652;28;20050;-76
2021/05/30 15:48:27;;;;;;;4.15;3.63;;;;;;;;;;5057078;28;20035;-76
2021/05/30 15:51:32;;;;;;;3.70;3.40;;;;;;;;;;5071568;28;20062;-77
2021/05/30 15:54:17;;;;;;;3.75;3.45;;;;;;;;;;5085997;28;20089;-77
2021/05/30 15:57:01;;;;;;;3.97;3.28;;;;;;;;;;5086534;28;20047;-77
2021/05/30 15:59:46;;;;;;;3.42;3.13;;;;;;;;;;5070925;28;20097;-76
2021/05/30 16:02:31;;;;;;;3.65;3.30;;;;;;;;;;5086382;28;20066;-76
2021/05/30 16:05:16;;;;;;;4.05;3.65;;;;;;;;;;5086374;28;20449;-77
2021/05/30 16:08:01;;;;;;;4.10;3.70;;;;;;;;;;5070917;28;20046;-76
2021/05/30 16:10:45;;;;;;;3.60;3.30;;;;;;;;;;5071035;28;20039;-77
2021/05/30 16:13:30;;;;;;;4.35;3.47;;;;;;;;;;5086248;28;20552;-77
2021/05/30 16:16:15;;;;;;;3.58;3.28;;;;;;;;;;5086356;28;20046;-77
2021/05/30 16:18:59;;;;;;;5.43;3.05;;;;;;;;;;5056881;28;20070;-76
2021/05/30 16:21:44;;;;;;;4.15;3.22;;;;;;;;;;5070950;28;20572;-77
2021/05/30 16:24:28;;;;;;;3.72;3.42;;;;;;;;;;5056198;28;20066;-78
2021/05/30 16:27:14;;;;;;;3.90;3.50;;;;;;;;;;5056650;28;20059;-77
2021/05/30 16:29:59;;;;;;;3.60;3.30;;;;;;;;;;5070906;28;20047;-77
2021/05/30 16:32:43;;;;;;;3.80;3.50;;;;;;;;;;5056656;28;20170;-77
2021/05/30 16:35:28;;;;;;;4.85;3.70;;;;;;;;;;5070557;28;20062;-77